Time;durP1;ratioP1;P1;durP2;ratioP2;P2;SDS_P1;SDS_P2;PMS_P1;PMS_P2;Temp;Humidity;BMP_temperature;BMP_pressure;BME280_temperature;BME280_humidity;BME280_pressure;Samples;Min_cycle;Max_cycle;Signal;HPM_P1;HPM_P2
2021/06/21 00:01:30;;;;;;;;;;;;;;;20.47;78.19;100508.97;4970495;28;1759;-63
2021/06/21 00:03:57;;;;;;;;;;;;;;;20.44;76.50;100494.03;4959408;28;1775;-58
2021/06/21 00:06:24;;;;;;;;;;;;;;;20.47;75.23;100500.91;4956635;28;1952;-64
2021/06/21 00:08:51;;;;;;;;;;;;;;;20.48;77.29;100502.63;4957162;28;1608;-63
2021/06/21 00:11:19;;;;;;;;;;;;;;;20.51;75.69;100507.69;4960667;28;1569;-64
2021/06/21 00:13:46;;;;;;;;;;;;;;;20.47;77.36;100506.28;4968354;28;1701;-64
2021/06/21 00:16:13;;;;;;;;;;;;;;;20.49;77.22;100512.34;4958130;28;1536;-63
2021/06/21 00:18:39;;;;;;;;;;;;;;;20.46;76.43;100512.69;4962418;28;1443;-63
2021/06/21 00:21:06;;;;;;;;;;;;;;;20.46;76.70;100508.16;4961831;28;1880;-58
2021/06/21 00:23:33;;;;;;;;;;;;;;;20.42;75.59;100513.97;4960905;28;1735;-59
2021/06/21 00:25:59;;;;;;;;;;;;;;;20.42;76.58;100511.28;4960128;28;1906;-59
2021/06/21 00:28:27;;;;;;;;;;;;;;;20.40;77.07;100510.59;4970111;28;1787;-58
2021/06/21 00:30:54;;;;;;;;;;;;;;;20.42;75.39;100511.28;4968142;28;1573;-63
2021/06/21 00:33:21;;;;;;;;;;;;;;;20.43;77.64;100515.66;4970307;28;1672;-67
2021/06/21 00:35:47;;;;;;;;;;;;;;;20.41;77.00;100499.72;4965376;28;1363;-58
2021/06/21 00:38:14;;;;;;;;;;;;;;;20.40;76.27;100505.22;4959124;28;1359;-65
2021/06/21 00:40:41;;;;;;;;;;;;;;;20.36;75.56;100491.25;4955852;29;1381;-58
2021/06/21 00:43:07;;;;;;;;;;;;;;;20.39;76.75;100493.66;4962771;28;1629;-64
2021/06/21 00:45:35;;;;;;;;;;;;;;;20.41;77.30;100506.91;4961202;28;1428;-58
2021/06/21 00:48:02;;;;;;;;;;;;;;;20.39;77.47;100496.34;4958538;28;2042;-63
2021/06/21 00:50:29;;;;;;;;;;;;;;;20.35;76.94;100494.09;4957583;28;1632;-63
2021/06/21 00:52:57;;;;;;;;;;;;;;;20.36;77.04;100482.34;4961784;28;1557;-63
2021/06/21 00:55:24;;;;;;;;;;;;;;;20.33;75.94;100471.91;4961703;28;1565;-58
2021/06/21 00:57:50;;;;;;;;;;;;;;;20.39;75.73;100482.03;4965117;28;1569;-60
2021/06/21 01:00:19;;;;;;;;;;;;;;;20.39;77.44;100477.53;4967694;28;1577;-63
2021/06/21 01:02:47;;;;;;;;;;;;;;;20.36;76.01;100482.34;4963164;28;1469;-59
2021/06/21 01:05:15;;;;;;;;;;;;;;;20.33;75.69;100479.97;4959481;28;1519;-64
2021/06/21 01:07:41;;;;;;;;;;;;;;;20.34;76.31;100468.25;4960645;28;1906;-59
2021/06/21 01:10:09;;;;;;;;;;;;;;;20.36;76.82;100485.03;4961166;28;1593;-59
2021/06/21 01:12:42;;;;;;;;;;;;;;;20.36;76.51;100479.66;4958282;28;1586;-64
2021/06/21 01:15:09;;;;;;;;;;;;;;;20.31;74.38;100485.47;4951388;28;1425;-58
2021/06/21 01:17:39;;;;;;;;;;;;;;;20.34;77.21;100487.03;4957006;28;1372;-58
2021/06/21 01:20:24;;;;;;;;;;;;;;;20.33;76.79;100471.91;4961343;28;1644;-58
2021/06/21 01:23:03;;;;;;;;;;;;;;;20.32;76.31;100475.59;4932372;28;1687;-58
2021/06/21 01:25:31;;;;;;;;;;;;;;;20.31;76.41;100484.63;4957141;28;1578;-58
2021/06/21 01:28:02;;;;;;;;;;;;;;;20.32;78.50;100480.97;4965676;28;2034;-58
2021/06/21 01:30:38;;;;;;;;;;;;;;;20.32;77.35;100475.59;4960265;28;1511;-58
2021/06/21 01:33:06;;;;;;;;;;;;;;;20.33;77.06;100471.91;4955921;28;1578;-58
2021/06/21 01:35:34;;;;;;;;;;;;;;;20.33;78.06;100472.75;4957676;28;1445;-58
2021/06/21 01:38:02;;;;;;;;;;;;;;;20.30;76.43;100475.75;4967847;28;1405;-63
2021/06/21 01:40:31;;;;;;;;;;;;;;;20.27;76.36;100463.47;4953426;29;1650;-63
2021/06/21 01:43:01;;;;;;;;;;;;;;;20.32;76.48;100481.81;4953888;28;1586;-58
2021/06/21 01:45:29;;;;;;;;;;;;;;;20.29;77.01;100479.41;4959270;28;1609;-63
2021/06/21 01:47:55;;;;;;;;;;;;;;;20.27;75.63;100478.72;4957186;28;1906;-58
2021/06/21 01:50:24;;;;;;;;;;;;;;;20.27;75.04;100484.97;4952959;28;1439;-58
2021/06/21 01:52:53;;;;;;;;;;;;;;;20.30;76.25;100482.97;4960750;28;1648;-63
2021/06/21 01:55:20;;;;;;;;;;;;;;;20.30;75.20;100488.34;4961352;28;1561;-59
2021/06/21 01:57:47;;;;;;;;;;;;;;;20.34;74.75;100500.47;4952849;28;1385;-62
2021/06/21 02:00:15;;;;;;;;;;;;;;;20.35;75.52;100496.75;4962772;28;1436;-58
2021/06/21 02:02:43;;;;;;;;;;;;;;;20.32;74.71;100499.78;4950455;28;1708;-58
2021/06/21 02:05:13;;;;;;;;;;;;;;;20.30;74.62;100502.59;4957958;28;1673;-58
2021/06/21 02:07:41;;;;;;;;;;;;;;;20.29;74.47;100503.56;4957026;28;1911;-58
2021/06/21 02:10:09;;;;;;;;;;;;;;;20.29;76.22;100471.34;4951326;28;1327;-59
2021/06/21 02:12:37;;;;;;;;;;;;;;;20.29;74.76;100497.38;4955027;28;1597;-58
2021/06/21 02:15:04;;;;;;;;;;;;;;;20.30;74.16;100482.97;4951976;29;1412;-58
2021/06/21 02:17:31;;;;;;;;;;;;;;;20.26;75.08;100467.16;4954753;28;1570;-58
2021/06/21 02:19:59;;;;;;;;;;;;;;;20.25;75.68;100469.97;4963449;28;1557;-58
2021/06/21 02:22:27;;;;;;;;;;;;;;;20.26;76.39;100474.38;4958827;28;1743;-58
2021/06/21 02:24:57;;;;;;;;;;;;;;;20.23;76.41;100463.91;4954696;28;1473;-58
2021/06/21 02:27:24;;;;;;;;;;;;;;;20.27;76.07;100465.28;4957733;28;1973;-58
2021/06/21 02:29:51;;;;;;;;;;;;;;;20.24;75.99;100458.41;4964194;28;1369;-58
2021/06/21 02:32:18;;;;;;;;;;;;;;;20.24;77.05;100453.03;4953468;28;1365;-58
2021/06/21 02:34:45;;;;;;;;;;;;;;;20.24;76.13;100463.75;4953871;28;1574;-58
2021/06/21 02:37:12;;;;;;;;;;;;;;;20.23;77.15;100453.16;4963151;28;1398;-58
2021/06/21 02:39:39;;;;;;;;;;;;;;;20.23;77.28;100456.72;4953478;28;1456;-58
2021/06/21 02:42:07;;;;;;;;;;;;;;;20.22;76.78;100471.13;4954049;28;1567;-58
2021/06/21 02:44:35;;;;;;;;;;;;;;;20.22;75.58;100455.00;4955720;28;1354;-64
2021/06/21 02:47:02;;;;;;;;;;;;;;;20.22;76.74;100462.25;4954615;28;1903;-63
2021/06/21 02:49:29;;;;;;;;;;;;;;;20.18;75.62;100453.63;4959437;28;1506;-63
2021/06/21 02:51:58;;;;;;;;;;;;;;;20.18;76.11;100458.16;4957512;28;1403;-64
2021/06/21 02:54:27;;;;;;;;;;;;;;;20.18;76.43;100448.25;4955021;28;1513;-65
2021/06/21 02:57:09;;;;;;;;;;;;;;;20.19;76.16;100459.84;4951698;28;1914;-64
2021/06/21 02:59:40;;;;;;;;;;;;;;;20.18;75.19;100448.25;4945567;28;1375;-64
2021/06/21 03:02:08;;;;;;;;;;;;;;;20.17;76.55;100457.28;4951178;28;1464;-64
2021/06/21 03:04:37;;;;;;;;;;;;;;;20.18;75.01;100458.16;4951955;28;1512;-64
2021/06/21 03:07:04;;;;;;;;;;;;;;;20.19;75.48;100446.41;4952851;29;1914;-64
2021/06/21 03:09:31;;;;;;;;;;;;;;;20.21;75.87;100457.84;4953025;28;1751;-65
2021/06/21 03:12:00;;;;;;;;;;;;;;;20.22;76.60;100454.19;4954244;28;1392;-64
2021/06/21 03:14:28;;;;;;;;;;;;;;;20.21;76.05;100458.72;4953340;28;1319;-65
2021/06/21 03:16:58;;;;;;;;;;;;;;;20.21;75.85;100464.09;4952756;28;1519;-65
2021/06/21 03:19:26;;;;;;;;;;;;;;;20.25;76.33;100473.53;4956786;28;1382;-64
2021/06/21 03:21:53;;;;;;;;;;;;;;;20.25;77.10;100465.47;4954766;29;1699;-64
2021/06/21 03:24:22;;;;;;;;;;;;;;;20.24;75.93;100455.72;4954297;29;1378;-64
2021/06/21 03:26:49;;;;;;;;;;;;;;;20.26;74.38;100472.50;4952985;29;1968;-64
2021/06/21 03:29:16;;;;;;;;;;;;;;;20.22;74.92;100460.38;4953704;28;1320;-59
2021/06/21 03:31:44;;;;;;;;;;;;;;;20.26;74.31;100467.16;4949595;29;1304;-59
2021/06/21 03:34:12;;;;;;;;;;;;;;;20.27;74.43;100462.59;4952498;29;1420;-59
2021/06/21 03:36:40;;;;;;;;;;;;;;;20.29;74.25;100468.66;4952706;29;1382;-59
2021/06/21 03:39:07;;;;;;;;;;;;;;;20.26;74.49;100452.88;4952912;28;1439;-59
2021/06/21 03:41:34;;;;;;;;;;;;;;;20.25;72.70;100459.22;4951643;29;1339;-59
2021/06/21 03:44:00;;;;;;;;;;;;;;;20.29;73.41;100467.84;4952503;29;1688;-59
2021/06/21 03:46:27;;;;;;;;;;;;;;;20.31;74.63;100465.84;4953507;29;1712;-59
2021/06/21 03:48:54;;;;;;;;;;;;;;;20.29;73.44;100455.25;4955801;28;1898;-59
2021/06/21 03:51:22;;;;;;;;;;;;;;;20.36;74.04;100456.34;4948683;28;1478;-59
2021/06/21 03:53:49;;;;;;;;;;;;;;;20.43;74.39;100467.31;4952772;28;1311;-60
2021/06/21 03:56:16;;;;;;;;;;;;;;;20.48;74.81;100461.50;4953373;28;1350;-59
2021/06/21 03:58:45;;;;;;;;;;;;;;;20.52;74.91;100466.41;4955216;28;1372;-64
2021/06/21 04:01:11;;;;;;;;;;;;;;;20.57;74.48;100468.63;4947844;29;1419;-64
2021/06/21 04:03:38;;;;;;;;;;;;;;;20.61;74.98;100465.53;4948757;29;1495;-64
2021/06/21 04:06:05;;;;;;;;;;;;;;;20.63;75.28;100458.16;4952349;29;1209;-64
2021/06/21 04:08:33;;;;;;;;;;;;;;;20.69;74.56;100471.97;4954434;28;1969;-62
2021/06/21 04:10:59;;;;;;;;;;;;;;;20.78;75.65;100465.66;4949686;29;1402;-67
2021/06/21 04:13:28;;;;;;;;;;;;;;;20.80;75.96;100488.69;4953619;29;1407;-64
2021/06/21 04:15:55;;;;;;;;;;;;;;;20.78;75.56;100476.41;4946003;29;1398;-63
2021/06/21 04:18:24;;;;;;;;;;;;;;;20.87;75.75;100488.94;4951899;29;1250;-60
2021/06/21 04:20:50;;;;;;;;;;;;;;;20.95;75.93;100488.16;4953358;28;1727;-68
2021/06/21 04:23:17;;;;;;;;;;;;;;;20.93;76.21;100495.50;4949732;28;1442;-70
2021/06/21 04:25:45;;;;;;;;;;;;;;;20.98;76.04;100474.41;4944860;28;1500;-62
2021/06/21 04:28:12;;;;;;;;;;;;;;;20.99;77.23;100501.13;4954212;29;1906;-64
2021/06/21 04:30:39;;;;;;;;;;;;;;;21.10;77.02;100513.47;4952048;28;1316;-77
2021/06/21 04:33:06;;;;;;;;;;;;;;;21.09;76.58;100508.25;4953958;28;1441;-73
2021/06/21 04:35:34;;;;;;;;;;;;;;;21.01;76.37;100504.50;4952858;28;1271;-72
2021/06/21 04:38:00;;;;;;;;;;;;;;;20.92;75.08;100502.75;4949197;29;1491;-72
2021/06/21 04:40:29;;;;;;;;;;;;;;;20.96;76.25;100498.75;4953073;28;1389;-68
2021/06/21 04:42:57;;;;;;;;;;;;;;;20.97;76.01;100496.91;4952777;28;1367;-67
2021/06/21 04:45:25;;;;;;;;;;;;;;;21.05;76.26;100499.69;4954973;29;1368;-69
2021/06/21 04:47:51;;;;;;;;;;;;;;;21.11;76.35;100498.19;4953407;28;1903;-70
2021/06/21 04:50:19;;;;;;;;;;;;;;;21.16;76.21;100502.09;4951243;28;1453;-72
2021/06/21 04:52:46;;;;;;;;;;;;;;;21.18;76.29;100462.44;4951202;29;1418;-72
2021/06/21 04:55:14;;;;;;;;;;;;;;;21.24;76.03;100460.97;4951210;29;1470;-67
2021/06/21 04:57:41;;;;;;;;;;;;;;;21.30;75.83;100459.50;4949292;28;1354;-72
2021/06/21 05:00:11;;;;;;;;;;;;;;;21.36;75.63;100464.25;4948766;28;1272;-72
2021/06/21 05:02:39;;;;;;;;;;;;;;;21.40;75.12;100466.47;4950469;28;1372;-73
2021/06/21 05:05:06;;;;;;;;;;;;;;;21.42;75.91;100459.06;4948921;28;1439;-72
2021/06/21 05:07:33;;;;;;;;;;;;;;;21.45;75.91;100474.94;4949644;29;1979;-67
2021/06/21 05:10:00;;;;;;;;;;;;;;;21.49;75.11;100470.09;4950418;29;1326;-70
2021/06/21 05:12:26;;;;;;;;;;;;;;;21.55;74.90;100479.38;4950168;28;1400;-70
2021/06/21 05:14:53;;;;;;;;;;;;;;;21.63;74.47;100476.72;4950641;28;1502;-62
2021/06/21 05:17:21;;;;;;;;;;;;;;;21.66;74.91;100476.41;4949569;28;1464;-62
2021/06/21 05:19:48;;;;;;;;;;;;;;;21.67;74.43;100486.19;4952755;29;1410;-61
2021/06/21 05:22:14;;;;;;;;;;;;;;;21.71;74.46;100501.00;4951300;29;1577;-62
2021/06/21 05:24:41;;;;;;;;;;;;;;;21.69;74.22;100494.09;4951958;28;1351;-62
2021/06/21 05:27:08;;;;;;;;;;;;;;;21.71;75.18;100498.31;4947197;28;10781;-62
2021/06/21 05:29:35;;;;;;;;;;;;;;;21.75;75.15;100496.13;4945714;29;1911;-62
2021/06/21 05:32:02;;;;;;;;;;;;;;;21.62;76.04;100499.25;4952415;28;1404;-68
2021/06/21 05:34:30;;;;;;;;;;;;;;;21.60;76.94;100496.72;4953651;28;1130;-62
2021/06/21 05:36:57;;;;;;;;;;;;;;;21.55;76.78;100498.22;4950782;29;1311;-62
2021/06/21 05:39:23;;;;;;;;;;;;;;;21.51;77.33;100499.53;4949583;29;1271;-62
2021/06/21 05:41:50;;;;;;;;;;;;;;;21.47;76.94;100492.75;4952251;28;1475;-62
2021/06/21 05:44:17;;;;;;;;;;;;;;;21.48;77.72;100505.22;4950818;28;1367;-62
2021/06/21 05:46:44;;;;;;;;;;;;;;;21.43;77.36;100500.31;4951320;29;1474;-62
2021/06/21 05:49:10;;;;;;;;;;;;;;;21.43;78.36;100530.75;4952653;28;1958;-62
2021/06/21 05:51:38;;;;;;;;;;;;;;;21.43;77.50;100495.78;4951286;29;1539;-62
2021/06/21 05:54:05;;;;;;;;;;;;;;;21.43;77.25;100503.84;4952883;28;1609;-62
2021/06/21 05:56:32;;;;;;;;;;;;;;;21.44;77.07;100515.44;4953244;28;1281;-62
2021/06/21 05:58:59;;;;;;;;;;;;;;;21.41;77.21;100503.13;4953245;28;1795;-62
2021/06/21 06:01:25;;;;;;;;;;;;;;;21.44;77.70;100500.16;4952659;28;1500;-62
2021/06/21 06:03:52;;;;;;;;;;;;;;;21.44;77.85;100537.81;4948355;28;1739;-70
2021/06/21 06:06:18;;;;;;;;;;;;;;;21.43;77.75;100538.00;4953759;28;1393;-62
2021/06/21 06:08:46;;;;;;;;;;;;;;;21.43;78.19;100517.31;4950810;29;1931;-69
2021/06/21 06:11:13;;;;;;;;;;;;;;;21.41;77.89;100532.72;4952392;28;1778;-70
2021/06/21 06:13:40;;;;;;;;;;;;;;;21.42;78.18;100539.78;4953486;28;1584;-69
2021/06/21 06:16:07;;;;;;;;;;;;;;;21.41;77.60;100531.88;4952826;28;1441;-70
2021/06/21 07:05:46;;;;;;;;;;;;;;;21.47;77.93;100504.38;6276362;22;97516;-44
2021/06/21 07:08:13;;;;;;;;;;;;;;;21.47;77.54;100504.38;6247327;23;1005;-45
2021/06/21 07:13:24;;;;;;;;;;;;;;;21.43;78.12;100500.31;6252151;23;1892;-44
2021/06/21 07:15:53;;;;;;;;;;;;;;;21.44;78.21;100504.69;6249843;23;1130;-44
2021/06/21 07:18:19;;;;;;;;;;;;;;;21.40;78.52;100503.28;6250325;23;1110;-43
2021/06/21 07:20:51;;;;;;;;;;;;;;;21.41;78.68;100505.00;6252225;23;1443;-44
2021/06/21 07:23:18;;;;;;;;;;;;;;;21.42;78.06;100496.75;6253011;23;1073;-44
2021/06/21 07:25:45;;;;;;;;;;;;;;;21.41;77.94;100497.75;6252505;23;1055;-44
2021/06/21 07:28:15;;;;;;;;;;;;;;;21.44;78.14;100499.31;6252252;23;981;-44
2021/06/21 07:30:42;;;;;;;;;;;;;;;21.48;77.62;100497.16;6251739;23;994;-45
2021/06/21 07:33:08;;;;;;;;;;;;;;;21.42;77.71;100502.13;6251358;23;1888;-45
2021/06/21 07:35:35;;;;;;;;;;;;;;;21.42;77.66;100514.72;6252046;23;1090;-45
2021/06/21 07:38:03;;;;;;;;;;;;;;;21.40;77.86;100504.13;6252040;23;1196;-44
2021/06/21 07:40:29;;;;;;;;;;;;;;;21.40;77.87;100519.41;6251392;23;1148;-44
2021/06/21 07:42:56;;;;;;;;;;;;;;;21.38;77.78;100500.75;6251374;23;1140;-44
2021/06/21 07:45:22;;;;;;;;;;;;;;;21.39;78.26;100502.44;6251960;23;982;-45
2021/06/21 07:47:50;;;;;;;;;;;;;;;21.40;77.93;100493.34;6251774;23;1090;-44
2021/06/21 07:50:16;;;;;;;;;;;;;;;21.39;78.16;100498.91;6251357;23;1125;-44
2021/06/21 07:52:43;;;;;;;;;;;;;;;21.45;78.28;100488.41;6251723;23;1090;-44
2021/06/21 07:55:13;;;;;;;;;;;;;;;21.49;78.11;100498.81;6251900;23;1932;-44
2021/06/21 07:57:40;;;;;;;;;;;;;;;21.49;77.75;100501.50;6251693;23;994;-45
2021/06/21 08:00:07;;;;;;;;;;;;;;;21.43;78.26;100494.94;6251069;23;1090;-45
2021/06/21 08:02:33;;;;;;;;;;;;;;;21.43;77.90;100487.72;6251226;23;1142;-44
2021/06/21 08:05:00;;;;;;;;;;;;;;;21.42;78.33;100491.34;6249231;23;1146;-44
2021/06/21 08:07:26;;;;;;;;;;;;;;;21.42;78.40;100496.75;6244861;23;1440;-44
2021/06/21 08:09:53;;;;;;;;;;;;;;;21.48;77.97;100498.00;6244494;23;1025;-44
2021/06/21 08:12:21;;;;;;;;;;;;;;;21.45;78.17;100498.31;6244492;23;1086;-45
2021/06/21 08:14:47;;;;;;;;;;;;;;;21.47;78.54;100503.53;6244581;23;1948;-44
2021/06/21 08:17:14;;;;;;;;;;;;;;;21.53;78.83;100502.91;6244551;23;1063;-45
2021/06/21 08:19:41;;;;;;;;;;;;;;;21.51;78.13;100505.75;6244069;23;1125;-44
2021/06/21 08:22:07;;;;;;;;;;;;;;;21.52;78.92;100517.34;6245012;23;990;-44
2021/06/21 08:24:37;;;;;;;;;;;;;;;21.50;78.33;100508.59;6244513;23;1048;-44
2021/06/21 08:27:03;;;;;;;;;;;;;;;21.48;78.34;100510.59;6244124;23;1110;-44
2021/06/21 08:29:31;;;;;;;;;;;;;;;21.45;78.14;100507.22;6244375;23;1118;-44
2021/06/21 08:31:58;;;;;;;;;;;;;;;21.52;78.22;100526.25;6243808;23;997;-45
2021/06/21 08:34:24;;;;;;;;;;;;;;;21.51;78.43;100510.31;6245355;23;1921;-44
2021/06/21 08:37:00;;;;;;;;;;;;;;;21.48;78.48;100510.59;6244981;23;1049;-44
2021/06/21 08:39:27;;;;;;;;;;;;;;;21.43;78.12;100514.63;6244239;23;1112;-44
2021/06/21 08:41:54;;;;;;;;;;;;;;;21.44;78.68;100500.16;6244861;23;967;-44
2021/06/21 08:44:21;;;;;;;;;;;;;;;21.44;78.32;100500.16;6244698;23;1106;-43
2021/06/21 08:46:50;;;;;;;;;;;;;;;21.47;78.00;100514.28;6245035;23;1064;-45
2021/06/21 08:49:18;;;;;;;;;;;;;;;21.46;78.65;100518.81;6245208;23;1064;-44
2021/06/21 08:51:46;;;;;;;;;;;;;;;21.43;78.62;100511.91;6243951;23;1049;-44
2021/06/21 08:54:14;;;;;;;;;;;;;;;21.48;78.33;100516.81;6243728;23;1944;-44
2021/06/21 08:56:40;;;;;;;;;;;;;;;21.47;78.11;100503.53;6244827;23;1065;-44
2021/06/21 08:59:07;;;;;;;;;;;;;;;21.47;77.94;100509.78;6244689;23;1004;-45
2021/06/21 09:01:34;;;;;;;;;;;;;;;21.46;78.53;100508.06;6244157;23;1145;-44
2021/06/21 09:04:02;;;;;;;;;;;;;;;21.40;78.90;100504.13;6245026;23;1005;-44
2021/06/21 09:06:36;;;;;;;;;;;;;;;21.38;78.46;100508.81;6243920;23;1121;-44
2021/06/21 09:09:03;;;;;;;;;;;;;;;21.38;79.20;100511.50;6244246;23;1098;-44
2021/06/21 09:11:54;;;;;;;;;;;;;;;21.40;78.43;100540.94;6244428;23;1005;-46
2021/06/21 09:14:32;;;;;;;;;;;;;;;21.44;79.82;100513.59;6244275;23;1942;-45
2021/06/21 09:17:02;;;;;;;;;;;;;;;21.47;79.42;100525.03;6243994;23;1198;-44
2021/06/21 09:19:32;;;;;;;;;;;;;;;21.40;79.28;100503.28;6244731;23;1052;-46
2021/06/21 09:21:59;;;;;;;;;;;;;;;21.41;79.74;100513.06;6239859;23;1215;-45
2021/06/21 09:24:29;;;;;;;;;;;;;;;21.42;79.31;100507.50;6243343;23;1159;-44
2021/06/21 09:26:59;;;;;;;;;;;;;;;21.48;79.91;100521.38;6244057;23;1008;-44
2021/06/21 09:29:48;;;;;;;;;;;;;;;21.44;80.02;100521.66;6244195;23;1095;-45
2021/06/21 09:32:25;;;;;;;;;;;;;;;21.44;79.46;100520.81;6242619;23;1113;-44
2021/06/21 09:34:57;;;;;;;;;;;;;;;21.44;79.78;100532.44;6244592;23;1960;-45
2021/06/21 09:37:26;;;;;;;;;;;;;;;21.42;78.98;100517.41;6245160;23;1076;-44
2021/06/21 09:39:52;;;;;;;;;;;;;;;21.45;79.65;100528.75;6244345;23;1126;-45
2021/06/21 09:42:22;;;;;;;;;;;;;;;21.43;79.96;100520.00;6244569;23;997;-44
2021/06/21 09:44:50;;;;;;;;;;;;;;;21.43;79.54;100513.78;6243622;23;926;-44
2021/06/21 09:47:31;;;;;;;;;;;;;;;21.41;79.25;100516.59;6244245;23;1001;-45
2021/06/21 09:50:17;;;;;;;;;;;;;;;21.40;79.29;100506.81;6244733;23;1068;-45
2021/06/21 09:52:50;;;;;;;;;;;;;;;21.43;79.73;100511.09;6244489;23;1931;-44
2021/06/21 09:55:23;;;;;;;;;;;;;;;21.44;79.67;100491.25;6244268;23;1934;-43
2021/06/21 09:58:00;;;;;;;;;;;;;;;21.43;79.69;100505.72;6244118;23;1037;-44
2021/06/21 10:00:27;;;;;;;;;;;;;;;21.41;79.37;100511.19;6244609;23;1126;-44
2021/06/21 10:03:05;;;;;;;;;;;;;;;21.42;79.56;100502.13;6244260;23;994;-44
2021/06/21 10:05:32;;;;;;;;;;;;;;;21.44;80.21;100516.28;6244382;23;1907;-44
2021/06/21 10:08:00;;;;;;;;;;;;;;;21.43;80.08;100514.63;6243989;23;1109;-44
2021/06/21 10:10:27;;;;;;;;;;;;;;;21.45;80.00;100512.59;6244276;23;1034;-45
2021/06/21 10:13:02;;;;;;;;;;;;;;;21.41;79.70;100511.19;6243779;23;1137;-45
2021/06/21 10:15:29;;;;;;;;;;;;;;;21.39;80.28;100507.00;6243562;23;1897;-44
2021/06/21 10:17:58;;;;;;;;;;;;;;;21.36;79.87;100512.69;6243018;23;1269;-44
2021/06/21 10:20:25;;;;;;;;;;;;;;;21.36;79.74;100500.06;6244142;23;1095;-45
2021/06/21 10:22:56;;;;;;;;;;;;;;;21.37;79.62;100530.50;6244215;23;1068;-44
2021/06/21 10:25:24;;;;;;;;;;;;;;;21.39;79.82;100490.84;6243661;23;2137;-44
2021/06/21 10:27:51;;;;;;;;;;;;;;;21.42;79.53;100522.81;6244391;23;1045;-45
2021/06/21 10:30:21;;;;;;;;;;;;;;;21.39;79.55;100491.69;6244390;23;1028;-45
2021/06/21 10:32:51;;;;;;;;;;;;;;;21.38;79.94;100510.66;6243900;23;1125;-45
2021/06/21 10:35:19;;;;;;;;;;;;;;;21.40;79.06;100497.91;6244676;23;1936;-45
2021/06/21 10:37:56;;;;;;;;;;;;;;;21.40;79.53;100497.91;6244694;23;1070;-44
2021/06/21 10:40:29;;;;;;;;;;;;;;;21.35;79.74;100509.16;6244721;23;981;-44
2021/06/21 10:42:56;;;;;;;;;;;;;;;21.30;74.37;100506.06;6244052;23;1090;-44
2021/06/21 10:45:23;;;;;;;;;;;;;;;21.01;74.92;100520.66;6244072;23;1029;-44
2021/06/21 10:47:51;;;;;;;;;;;;;;;21.04;74.83;100504.19;6244169;23;1013;-45
2021/06/21 10:50:23;;;;;;;;;;;;;;;21.16;75.17;100493.19;6243573;23;1101;-45
2021/06/21 10:52:57;;;;;;;;;;;;;;;21.21;76.55;100482.81;6244415;23;1105;-45
2021/06/21 10:55:40;;;;;;;;;;;;;;;21.25;77.33;100508.41;6243711;23;1952;-45
2021/06/21 11:01:21;;;;;;;;;;;;;;;21.29;77.76;100493.63;6244120;23;2223;-44
2021/06/21 11:03:49;;;;;;;;;;;;;;;21.28;77.72;100485.72;6244546;23;1056;-44
2021/06/21 11:06:34;;;;;;;;;;;;;;;21.31;77.64;100496.16;6243908;23;1115;-43
2021/06/21 11:09:06;;;;;;;;;;;;;;;21.27;78.34;100492.97;6243850;23;1070;-45
2021/06/21 11:11:43;;;;;;;;;;;;;;;21.29;78.32;100508.91;6244185;23;1070;-45
2021/06/21 11:14:11;;;;;;;;;;;;;;;21.30;78.36;100492.63;6242756;23;1996;-45
2021/06/21 11:19:26;;;;;;;;;;;;;;;21.26;78.43;100491.25;6243666;23;1591;-44
2021/06/21 11:22:02;;;;;;;;;;;;;;;21.28;78.41;100499.16;6243495;23;1105;-45
2021/06/21 11:24:47;;;;;;;;;;;;;;;21.27;78.83;100495.66;6243711;23;989;-44
2021/06/21 11:27:18;;;;;;;;;;;;;;;21.25;78.28;100489.56;6244010;23;1133;-44
2021/06/21 11:29:54;;;;;;;;;;;;;;;21.26;78.73;100492.09;6244311;23;1076;-45
2021/06/21 11:32:21;;;;;;;;;;;;;;;21.29;78.62;100512.47;6243101;23;1113;-44
2021/06/21 11:34:49;;;;;;;;;;;;;;;21.29;78.70;100500.84;6243540;23;1896;-44
2021/06/21 11:37:29;;;;;;;;;;;;;;;21.24;79.38;100488.72;6243930;23;1062;-45
2021/06/21 11:40:10;;;;;;;;;;;;;;;21.26;79.38;100485.88;6243529;23;1075;-45
2021/06/21 11:42:38;;;;;;;;;;;;;;;21.24;79.00;100482.50;6244276;23;1868;-44
2021/06/21 11:45:05;;;;;;;;;;;;;;;21.28;78.36;100477.66;6246119;23;1018;-44
2021/06/21 11:47:32;;;;;;;;;;;;;;;21.39;78.85;100472.84;6245290;23;1071;-47
2021/06/21 11:50:07;;;;;;;;;;;;;;;21.38;78.07;100478.38;6245279;23;1061;-46
2021/06/21 11:52:34;;;;;;;;;;;;;;;21.35;78.77;100468.81;6246410;23;1091;-45
2021/06/21 11:55:15;;;;;;;;;;;;;;;21.39;79.02;100469.34;6244661;23;1954;-46
2021/06/21 11:57:44;;;;;;;;;;;;;;;21.34;78.83;100461.72;6245350;23;1125;-45
2021/06/21 12:00:11;;;;;;;;;;;;;;;21.38;78.65;100468.47;6245520;23;1070;-44
2021/06/21 12:02:38;;;;;;;;;;;;;;;21.50;79.08;100463.69;6245565;23;1054;-46
2021/06/21 12:05:08;;;;;;;;;;;;;;;21.43;79.10;100459.97;6244753;23;1114;-45
2021/06/21 12:07:35;;;;;;;;;;;;;;;21.41;79.29;100456.56;6244573;23;1212;-46
2021/06/21 12:10:04;;;;;;;;;;;;;;;21.39;79.24;100454.03;6244770;23;1113;-45
2021/06/21 12:12:31;;;;;;;;;;;;;;;21.44;79.33;100461.66;6243837;23;1117;-46
2021/06/21 12:15:02;;;;;;;;;;;;;;;21.49;77.96;100467.41;6244740;23;1948;-46
2021/06/21 12:17:30;;;;;;;;;;;;;;;21.47;78.15;100465.84;6244009;23;1078;-45
2021/06/21 12:20:01;;;;;;;;;;;;;;;21.43;78.51;100459.97;6244853;23;992;-45
2021/06/21 12:22:27;;;;;;;;;;;;;;;21.43;78.48;100468.88;6244804;23;1051;-45
2021/06/21 12:24:58;;;;;;;;;;;;;;;21.43;79.42;100465.34;6243944;23;1064;-45
2021/06/21 12:27:24;;;;;;;;;;;;;;;21.44;79.26;100465.16;6244310;23;1139;-45
2021/06/21 12:29:52;;;;;;;;;;;;;;;21.43;79.81;100458.13;6244688;23;1037;-46
2021/06/21 12:32:20;;;;;;;;;;;;;;;21.43;79.97;100452.75;6245766;23;1113;-44
2021/06/21 12:34:49;;;;;;;;;;;;;;;21.41;80.35;100452.03;6244910;23;1908;-46
2021/06/21 12:37:24;;;;;;;;;;;;;;;21.45;80.09;100464.19;6245428;23;1096;-46
2021/06/21 12:39:54;;;;;;;;;;;;;;;21.43;81.63;100455.44;6244677;23;1040;-45
2021/06/21 12:42:23;;;;;;;;;;;;;;;21.48;80.76;100467.56;6244198;23;1102;-45
2021/06/21 12:44:52;;;;;;;;;;;;;;;21.49;80.93;100474.59;6244402;23;1114;-45
2021/06/21 12:47:57;;;;;;;;;;;;;;;21.47;81.47;100463.16;6244977;23;1203;-46
2021/06/21 12:50:25;;;;;;;;;;;;;;;21.47;81.44;100453.28;6244522;23;1044;-45
2021/06/21 12:52:52;;;;;;;;;;;;;;;21.42;81.85;100459.06;6245091;23;1101;-45
2021/06/21 12:55:23;;;;;;;;;;;;;;;21.43;81.46;100460.81;6244787;23;1954;-44
2021/06/21 12:57:54;;;;;;;;;;;;;;;21.45;82.21;100458.81;6244068;23;1072;-46
2021/06/21 13:00:37;;;;;;;;;;;;;;;21.45;82.22;100453.41;6245181;23;1089;-45
2021/06/21 13:03:33;;;;;;;;;;;;;;;21.42;81.70;100459.06;6239308;23;2066;-45
2021/06/21 13:05:59;;;;;;;;;;;;;;;21.41;81.65;100449.34;6244514;23;1350;-45
2021/06/21 13:08:34;;;;;;;;;;;;;;;21.41;81.90;100441.25;6245272;23;1160;-45
2021/06/21 13:11:10;;;;;;;;;;;;;;;21.39;81.50;100448.66;6244100;23;1102;-44
2021/06/21 13:13:37;;;;;;;;;;;;;;;21.39;81.79;100447.81;6244421;23;1125;-45
2021/06/21 13:16:08;;;;;;;;;;;;;;;21.37;82.01;100458.72;6244810;23;1940;-45
2021/06/21 13:18:47;;;;;;;;;;;;;;;21.36;82.26;100448.94;6245376;23;1076;-45
2021/06/21 13:21:14;;;;;;;;;;;;;;;21.38;82.17;100446.13;6244633;23;1046;-46
2021/06/21 13:23:57;;;;;;;;;;;;;;;21.39;82.32;100445.13;6245107;23;910;-44
2021/06/21 13:26:30;;;;;;;;;;;;;;;21.52;81.37;100442.03;6245188;23;1078;-45
2021/06/21 13:28:57;;;;;;;;;;;;;;;21.46;82.12;100459.63;6245727;23;1082;-44
2021/06/21 13:31:27;;;;;;;;;;;;;;;21.40;81.81;100444.94;6245337;23;985;-45
2021/06/21 13:34:03;;;;;;;;;;;;;;;21.38;82.04;100441.56;6245447;23;1070;-45
2021/06/21 13:36:33;;;;;;;;;;;;;;;21.38;81.83;100441.56;6244670;23;1908;-45
2021/06/21 13:39:00;;;;;;;;;;;;;;;21.38;82.04;100438.88;6245290;23;1088;-45
2021/06/21 13:41:30;;;;;;;;;;;;;;;21.34;81.58;100429.44;6244821;23;1022;-46
2021/06/21 13:44:12;;;;;;;;;;;;;;;21.35;82.31;100431.16;6237866;23;1209;-44
2021/06/21 13:46:40;;;;;;;;;;;;;;;21.44;81.53;100434.75;6245030;23;1063;-45
2021/06/21 13:49:09;;;;;;;;;;;;;;;21.44;81.91;100432.06;6244134;23;1117;-44
2021/06/21 13:51:38;;;;;;;;;;;;;;;21.43;81.13;100427.69;6243917;23;1058;-45
2021/06/21 13:54:07;;;;;;;;;;;;;;;21.42;81.98;100418.72;6243817;23;1500;-45